sensor_id;sensor_type;location;lat;lon;timestamp;P1;durP1;ratioP1;P2;durP2;ratioP2
64966;SDS011;51710;38.732;-121.358;2022-09-09T00:01:08;3.08;;;1.90;;
64966;SDS011;51710;38.732;-121.358;2022-09-09T00:09:19;2.85;;;1.50;;
64966;SDS011;51710;38.732;-121.358;2022-09-09T00:14:54;8.18;;;1.77;;
64966;SDS011;51710;38.732;-121.358;2022-09-09T00:23:12;3.42;;;1.20;;
64966;SDS011;51710;38.732;-121.358;2022-09-09T00:25:47;3.00;;;1.55;;
64966;SDS011;51710;38.732;-121.358;2022-09-09T00:28:24;3.20;;;1.70;;
64966;SDS011;51710;38.732;-121.358;2022-09-09T00:31:14;5.47;;;1.60;;
64966;SDS011;51710;38.732;-121.358;2022-09-09T00:33:46;2.58;;;1.75;;
64966;SDS011;51710;38.732;-121.358;2022-09-09T00:36:16;3.33;;;1.38;;
64966;SDS011;51710;38.732;-121.358;2022-09-09T00:38:48;2.28;;;1.48;;
64966;SDS011;51710;38.732;-121.358;2022-09-09T00:41:31;3.50;;;1.48;;
64966;SDS011;51710;38.732;-121.358;2022-09-09T00:46:56;2.67;;;1.50;;
64966;SDS011;51710;38.732;-121.358;2022-09-09T00:49:33;1.58;;;1.20;;
64966;SDS011;51710;38.732;-121.358;2022-09-09T00:57:35;1.75;;;1.25;;
64966;SDS011;51710;38.732;-121.358;2022-09-09T01:03:02;2.63;;;1.90;;
64966;SDS011;51710;38.732;-121.358;2022-09-09T01:06:11;1.83;;;1.40;;
64966;SDS011;51710;38.732;-121.358;2022-09-09T01:11:37;3.45;;;1.50;;
64966;SDS011;51710;38.732;-121.358;2022-09-09T01:16:56;2.65;;;1.42;;
64966;SDS011;51710;38.732;-121.358;2022-09-09T01:19:33;3.72;;;1.50;;
64966;SDS011;51710;38.732;-121.358;2022-09-09T01:22:13;3.72;;;1.42;;
64966;SDS011;51710;38.732;-121.358;2022-09-09T01:27:49;6.75;;;1.50;;
64966;SDS011;51710;38.732;-121.358;2022-09-09T01:30:18;2.75;;;1.52;;
64966;SDS011;51710;38.732;-121.358;2022-09-09T01:32:50;2.70;;;1.67;;
64966;SDS011;51710;38.732;-121.358;2022-09-09T01:38:19;1.52;;;1.00;;
64966;SDS011;51710;38.732;-121.358;2022-09-09T01:40:47;4.15;;;1.50;;
64966;SDS011;51710;38.732;-121.358;2022-09-09T01:43:14;5.07;;;1.60;;
64966;SDS011;51710;38.732;-121.358;2022-09-09T01:45:40;1.85;;;1.30;;
64966;SDS011;51710;38.732;-121.358;2022-09-09T01:48:09;2.90;;;1.38;;
64966;SDS011;51710;38.732;-121.358;2022-09-09T01:50:36;4.20;;;1.17;;
64966;SDS011;51710;38.732;-121.358;2022-09-09T01:53:02;3.30;;;1.10;;
64966;SDS011;51710;38.732;-121.358;2022-09-09T02:04:03;3.20;;;1.60;;
64966;SDS011;51710;38.732;-121.358;2022-09-09T02:06:44;2.95;;;1.20;;
64966;SDS011;51710;38.732;-121.358;2022-09-09T02:09:14;3.33;;;1.23;;
64966;SDS011;51710;38.732;-121.358;2022-09-09T02:11:47;4.15;;;1.23;;
64966;SDS011;51710;38.732;-121.358;2022-09-09T02:14:21;4.00;;;1.30;;
64966;SDS011;51710;38.732;-121.358;2022-09-09T02:16:57;3.38;;;1.20;;
64966;SDS011;51710;38.732;-121.358;2022-09-09T02:19:34;1.67;;;1.20;;
64966;SDS011;51710;38.732;-121.358;2022-09-09T02:22:03;2.05;;;1.13;;
64966;SDS011;51710;38.732;-121.358;2022-09-09T02:24:30;3.28;;;1.48;;
64966;SDS011;51710;38.732;-121.358;2022-09-09T02:27:01;1.70;;;1.30;;
64966;SDS011;51710;38.732;-121.358;2022-09-09T02:32:05;3.80;;;1.30;;
64966;SDS011;51710;38.732;-121.358;2022-09-09T02:34:35;2.60;;;1.30;;
64966;SDS011;51710;38.732;-121.358;2022-09-09T02:37:06;4.18;;;1.58;;
64966;SDS011;51710;38.732;-121.358;2022-09-09T02:39:35;2.13;;;1.38;;
64966;SDS011;51710;38.732;-121.358;2022-09-09T02:42:02;7.57;;;1.83;;
64966;SDS011;51710;38.732;-121.358;2022-09-09T02:44:30;6.20;;;1.60;;
64966;SDS011;51710;38.732;-121.358;2022-09-09T02:52:20;5.05;;;1.80;;
64966;SDS011;51710;38.732;-121.358;2022-09-09T02:55:29;3.30;;;1.30;;
64966;SDS011;51710;38.732;-121.358;2022-09-09T02:58:04;4.18;;;1.40;;
64966;SDS011;51710;38.732;-121.358;2022-09-09T03:00:33;9.25;;;1.65;;
64966;SDS011;51710;38.732;-121.358;2022-09-09T03:03:05;10.45;;;1.60;;
64966;SDS011;51710;38.732;-121.358;2022-09-09T03:05:34;5.18;;;1.60;;
64966;SDS011;51710;38.732;-121.358;2022-09-09T03:08:01;3.63;;;1.10;;
64966;SDS011;51710;38.732;-121.358;2022-09-09T03:10:29;4.32;;;1.50;;
64966;SDS011;51710;38.732;-121.358;2022-09-09T03:12:55;5.70;;;1.23;;
64966;SDS011;51710;38.732;-121.358;2022-09-09T03:15:22;4.55;;;1.40;;
64966;SDS011;51710;38.732;-121.358;2022-09-09T03:17:48;1.60;;;1.10;;
64966;SDS011;51710;38.732;-121.358;2022-09-09T03:20:15;1.92;;;1.15;;
64966;SDS011;51710;38.732;-121.358;2022-09-09T03:22:41;3.25;;;1.40;;
64966;SDS011;51710;38.732;-121.358;2022-09-09T03:25:09;3.33;;;1.23;;
64966;SDS011;51710;38.732;-121.358;2022-09-09T03:27:35;4.05;;;1.48;;
64966;SDS011;51710;38.732;-121.358;2022-09-09T03:30:02;5.68;;;1.35;;
64966;SDS011;51710;38.732;-121.358;2022-09-09T03:32:29;2.30;;;1.23;;
64966;SDS011;51710;38.732;-121.358;2022-09-09T03:34:56;4.47;;;1.83;;
64966;SDS011;51710;38.732;-121.358;2022-09-09T03:37:23;6.40;;;1.40;;
64966;SDS011;51710;38.732;-121.358;2022-09-09T03:39:49;2.35;;;1.40;;
64966;SDS011;51710;38.732;-121.358;2022-09-09T03:42:15;6.45;;;1.60;;
64966;SDS011;51710;38.732;-121.358;2022-09-09T03:44:45;3.47;;;1.40;;
64966;SDS011;51710;38.732;-121.358;2022-09-09T03:47:18;5.40;;;1.90;;
64966;SDS011;51710;38.732;-121.358;2022-09-09T03:49:47;3.55;;;1.65;;
64966;SDS011;51710;38.732;-121.358;2022-09-09T03:52:14;4.72;;;1.65;;
64966;SDS011;51710;38.732;-121.358;2022-09-09T03:54:41;3.28;;;1.80;;
64966;SDS011;51710;38.732;-121.358;2022-09-09T03:57:08;5.03;;;2.05;;
64966;SDS011;51710;38.732;-121.358;2022-09-09T03:59:35;2.80;;;1.55;;
64966;SDS011;51710;38.732;-121.358;2022-09-09T04:02:03;3.65;;;1.88;;
64966;SDS011;51710;38.732;-121.358;2022-09-09T04:04:30;5.53;;;1.50;;
64966;SDS011;51710;38.732;-121.358;2022-09-09T04:06:56;5.15;;;1.90;;
64966;SDS011;51710;38.732;-121.358;2022-09-09T04:09:23;8.40;;;2.03;;
64966;SDS011;51710;38.732;-121.358;2022-09-09T04:11:49;7.10;;;1.67;;
64966;SDS011;51710;38.732;-121.358;2022-09-09T04:14:15;8.38;;;1.98;;
64966;SDS011;51710;38.732;-121.358;2022-09-09T04:16:42;10.70;;;2.10;;
64966;SDS011;51710;38.732;-121.358;2022-09-09T04:19:10;5.75;;;1.80;;
64966;SDS011;51710;38.732;-121.358;2022-09-09T04:21:39;5.22;;;1.80;;
64966;SDS011;51710;38.732;-121.358;2022-09-09T04:24:07;6.97;;;1.67;;
64966;SDS011;51710;38.732;-121.358;2022-09-09T04:26:34;3.83;;;1.55;;
64966;SDS011;51710;38.732;-121.358;2022-09-09T04:29:02;5.32;;;2.05;;
64966;SDS011;51710;38.732;-121.358;2022-09-09T04:31:30;4.28;;;1.95;;
64966;SDS011;51710;38.732;-121.358;2022-09-09T04:33:56;7.93;;;1.90;;
64966;SDS011;51710;38.732;-121.358;2022-09-09T04:36:23;7.90;;;2.83;;
64966;SDS011;51710;38.732;-121.358;2022-09-09T04:38:49;3.75;;;1.75;;
64966;SDS011;51710;38.732;-121.358;2022-09-09T04:41:16;3.83;;;1.88;;
64966;SDS011;51710;38.732;-121.358;2022-09-09T04:43:42;3.88;;;2.00;;
64966;SDS011;51710;38.732;-121.358;2022-09-09T04:46:08;4.63;;;2.20;;
64966;SDS011;51710;38.732;-121.358;2022-09-09T04:48:35;3.30;;;1.80;;
64966;SDS011;51710;38.732;-121.358;2022-09-09T04:51:05;4.32;;;1.73;;
64966;SDS011;51710;38.732;-121.358;2022-09-09T04:53:33;3.42;;;1.70;;
64966;SDS011;51710;38.732;-121.358;2022-09-09T04:56:03;5.88;;;2.08;;
64966;SDS011;51710;38.732;-121.358;2022-09-09T04:58:38;7.75;;;2.00;;
64966;SDS011;51710;38.732;-121.358;2022-09-09T05:01:09;11.13;;;2.10;;
64966;SDS011;51710;38.732;-121.358;2022-09-09T05:03:38;4.53;;;2.08;;
64966;SDS011;51710;38.732;-121.358;2022-09-09T05:06:08;8.25;;;2.40;;
64966;SDS011;51710;38.732;-121.358;2022-09-09T05:08:36;4.30;;;1.90;;
64966;SDS011;51710;38.732;-121.358;2022-09-09T05:11:12;7.75;;;2.78;;
64966;SDS011;51710;38.732;-121.358;2022-09-09T05:13:48;3.75;;;2.10;;
64966;SDS011;51710;38.732;-121.358;2022-09-09T05:16:15;6.45;;;2.90;;
64966;SDS011;51710;38.732;-121.358;2022-09-09T05:18:42;7.50;;;2.72;;
64966;SDS011;51710;38.732;-121.358;2022-09-09T05:21:10;7.97;;;3.45;;
64966;SDS011;51710;38.732;-121.358;2022-09-09T05:23:38;13.35;;;3.60;;
64966;SDS011;51710;38.732;-121.358;2022-09-09T05:26:05;7.72;;;2.90;;
64966;SDS011;51710;38.732;-121.358;2022-09-09T05:28:35;8.60;;;3.28;;
64966;SDS011;51710;38.732;-121.358;2022-09-09T05:31:09;7.18;;;3.03;;
64966;SDS011;51710;38.732;-121.358;2022-09-09T05:33:40;7.18;;;3.38;;
64966;SDS011;51710;38.732;-121.358;2022-09-09T05:36:09;7.35;;;3.33;;
64966;SDS011;51710;38.732;-121.358;2022-09-09T05:38:41;7.63;;;4.45;;
64966;SDS011;51710;38.732;-121.358;2022-09-09T05:41:08;6.35;;;3.80;;
64966;SDS011;51710;38.732;-121.358;2022-09-09T05:43:36;10.50;;;3.88;;
64966;SDS011;51710;38.732;-121.358;2022-09-09T05:48:32;6.90;;;3.78;;
64966;SDS011;51710;38.732;-121.358;2022-09-09T05:51:00;7.32;;;4.18;;
64966;SDS011;51710;38.732;-121.358;2022-09-09T05:53:28;8.75;;;4.43;;
64966;SDS011;51710;38.732;-121.358;2022-09-09T05:56:07;9.32;;;4.13;;
64966;SDS011;51710;38.732;-121.358;2022-09-09T05:58:39;8.63;;;4.03;;
64966;SDS011;51710;38.732;-121.358;2022-09-09T06:01:10;10.43;;;4.28;;
64966;SDS011;51710;38.732;-121.358;2022-09-09T06:03:39;9.13;;;4.28;;
64966;SDS011;51710;38.732;-121.358;2022-09-09T06:06:08;10.05;;;4.15;;
64966;SDS011;51710;38.732;-121.358;2022-09-09T06:08:40;7.85;;;3.78;;
64966;SDS011;51710;38.732;-121.358;2022-09-09T06:11:10;7.18;;;3.42;;
64966;SDS011;51710;38.732;-121.358;2022-09-09T06:13:39;9.02;;;3.58;;
64966;SDS011;51710;38.732;-121.358;2022-09-09T06:16:06;7.72;;;3.15;;
64966;SDS011;51710;38.732;-121.358;2022-09-09T06:18:38;11.60;;;3.22;;
64966;SDS011;51710;38.732;-121.358;2022-09-09T06:21:06;9.98;;;3.30;;
64966;SDS011;51710;38.732;-121.358;2022-09-09T06:23:35;6.53;;;3.28;;
64966;SDS011;51710;38.732;-121.358;2022-09-09T06:28:33;9.75;;;3.03;;
64966;SDS011;51710;38.732;-121.358;2022-09-09T06:31:01;7.70;;;2.85;;
64966;SDS011;51710;38.732;-121.358;2022-09-09T06:33:33;8.95;;;2.75;;
64966;SDS011;51710;38.732;-121.358;2022-09-09T06:36:02;11.90;;;3.85;;
64966;SDS011;51710;38.732;-121.358;2022-09-09T06:38:30;8.30;;;3.00;;
64966;SDS011;51710;38.732;-121.358;2022-09-09T06:40:58;6.05;;;2.63;;
64966;SDS011;51710;38.732;-121.358;2022-09-09T06:43:26;5.60;;;2.70;;
64966;SDS011;51710;38.732;-121.358;2022-09-09T06:45:56;11.95;;;3.28;;
64966;SDS011;51710;38.732;-121.358;2022-09-09T06:48:24;9.13;;;3.22;;
64966;SDS011;51710;38.732;-121.358;2022-09-09T06:51:01;6.03;;;2.28;;
64966;SDS011;51710;38.732;-121.358;2022-09-09T06:53:33;5.88;;;2.70;;
64966;SDS011;51710;38.732;-121.358;2022-09-09T06:56:22;6.93;;;2.50;;
64966;SDS011;51710;38.732;-121.358;2022-09-09T06:58:50;5.88;;;2.42;;
64966;SDS011;51710;38.732;-121.358;2022-09-09T07:01:22;6.00;;;2.47;;
64966;SDS011;51710;38.732;-121.358;2022-09-09T07:03:50;4.38;;;2.33;;
64966;SDS011;51710;38.732;-121.358;2022-09-09T07:06:19;4.65;;;2.60;;
64966;SDS011;51710;38.732;-121.358;2022-09-09T07:08:51;6.60;;;2.75;;
64966;SDS011;51710;38.732;-121.358;2022-09-09T07:11:47;4.57;;;2.00;;
64966;SDS011;51710;38.732;-121.358;2022-09-09T07:14:16;5.00;;;2.17;;
64966;SDS011;51710;38.732;-121.358;2022-09-09T07:16:43;5.18;;;3.03;;
64966;SDS011;51710;38.732;-121.358;2022-09-09T07:19:11;3.95;;;2.22;;
64966;SDS011;51710;38.732;-121.358;2022-09-09T07:21:39;4.93;;;2.42;;
64966;SDS011;51710;38.732;-121.358;2022-09-09T07:24:06;4.72;;;2.25;;
64966;SDS011;51710;38.732;-121.358;2022-09-09T07:26:36;4.47;;;2.53;;
64966;SDS011;51710;38.732;-121.358;2022-09-09T07:29:04;5.53;;;2.40;;
64966;SDS011;51710;38.732;-121.358;2022-09-09T07:31:32;4.63;;;2.17;;
64966;SDS011;51710;38.732;-121.358;2022-09-09T07:34:02;5.93;;;2.17;;
64966;SDS011;51710;38.732;-121.358;2022-09-09T07:36:31;5.43;;;2.42;;
64966;SDS011;51710;38.732;-121.358;2022-09-09T07:39:00;6.00;;;2.50;;
64966;SDS011;51710;38.732;-121.358;2022-09-09T07:41:33;4.63;;;2.30;;
64966;SDS011;51710;38.732;-121.358;2022-09-09T07:44:11;3.90;;;2.30;;
64966;SDS011;51710;38.732;-121.358;2022-09-09T07:46:43;5.72;;;2.67;;
64966;SDS011;51710;38.732;-121.358;2022-09-09T07:49:10;3.67;;;2.22;;
64966;SDS011;51710;38.732;-121.358;2022-09-09T07:51:38;4.05;;;2.47;;
64966;SDS011;51710;38.732;-121.358;2022-09-09T07:54:08;5.75;;;2.47;;
64966;SDS011;51710;38.732;-121.358;2022-09-09T07:56:36;16.60;;;3.20;;
64966;SDS011;51710;38.732;-121.358;2022-09-09T07:59:04;9.68;;;2.92;;
64966;SDS011;51710;38.732;-121.358;2022-09-09T08:01:33;10.93;;;2.58;;
64966;SDS011;51710;38.732;-121.358;2022-09-09T08:04:05;4.32;;;2.45;;
64966;SDS011;51710;38.732;-121.358;2022-09-09T08:06:40;5.05;;;2.38;;
64966;SDS011;51710;38.732;-121.358;2022-09-09T08:09:09;5.65;;;2.28;;
64966;SDS011;51710;38.732;-121.358;2022-09-09T08:11:36;7.30;;;2.53;;
64966;SDS011;51710;38.732;-121.358;2022-09-09T08:14:03;11.63;;;3.30;;
64966;SDS011;51710;38.732;-121.358;2022-09-09T08:16:31;12.15;;;3.00;;
64966;SDS011;51710;38.732;-121.358;2022-09-09T08:19:01;12.63;;;2.90;;
64966;SDS011;51710;38.732;-121.358;2022-09-09T08:21:29;8.82;;;3.10;;
64966;SDS011;51710;38.732;-121.358;2022-09-09T08:23:58;5.32;;;2.53;;
64966;SDS011;51710;38.732;-121.358;2022-09-09T08:26:29;6.60;;;2.28;;
64966;SDS011;51710;38.732;-121.358;2022-09-09T08:28:58;6.82;;;2.60;;
64966;SDS011;51710;38.732;-121.358;2022-09-09T08:31:26;5.63;;;2.80;;
64966;SDS011;51710;38.732;-121.358;2022-09-09T08:33:56;5.07;;;2.47;;
64966;SDS011;51710;38.732;-121.358;2022-09-09T08:36:25;7.72;;;2.38;;
64966;SDS011;51710;38.732;-121.358;2022-09-09T08:38:54;4.97;;;2.40;;
64966;SDS011;51710;38.732;-121.358;2022-09-09T08:44:23;5.03;;;2.30;;
64966;SDS011;51710;38.732;-121.358;2022-09-09T08:49:39;10.10;;;3.17;;
64966;SDS011;51710;38.732;-121.358;2022-09-09T08:52:29;4.20;;;2.35;;
64966;SDS011;51710;38.732;-121.358;2022-09-09T08:58:09;4.20;;;2.40;;
64966;SDS011;51710;38.732;-121.358;2022-09-09T09:00:59;6.53;;;2.72;;
64966;SDS011;51710;38.732;-121.358;2022-09-09T09:11:58;6.60;;;2.83;;
64966;SDS011;51710;38.732;-121.358;2022-09-09T09:14:28;3.17;;;2.13;;
64966;SDS011;51710;38.732;-121.358;2022-09-09T09:19:40;3.72;;;2.42;;
64966;SDS011;51710;38.732;-121.358;2022-09-09T09:24:56;6.15;;;2.50;;
64966;SDS011;51710;38.732;-121.358;2022-09-09T09:27:33;7.38;;;2.47;;
64966;SDS011;51710;38.732;-121.358;2022-09-09T09:30:10;9.63;;;2.83;;
64966;SDS011;51710;38.732;-121.358;2022-09-09T09:32:49;9.02;;;2.85;;
64966;SDS011;51710;38.732;-121.358;2022-09-09T09:35:20;5.93;;;2.80;;
64966;SDS011;51710;38.732;-121.358;2022-09-09T09:37:49;7.45;;;2.40;;
64966;SDS011;51710;38.732;-121.358;2022-09-09T09:40:17;5.18;;;2.88;;
64966;SDS011;51710;38.732;-121.358;2022-09-09T09:43:03;8.60;;;2.50;;
64966;SDS011;51710;38.732;-121.358;2022-09-09T09:45:40;6.10;;;2.70;;
64966;SDS011;51710;38.732;-121.358;2022-09-09T09:48:10;3.58;;;2.63;;
64966;SDS011;51710;38.732;-121.358;2022-09-09T09:53:22;7.38;;;3.00;;
64966;SDS011;51710;38.732;-121.358;2022-09-09T09:58:29;5.63;;;1.90;;
64966;SDS011;51710;38.732;-121.358;2022-09-09T10:00:59;5.07;;;2.20;;
64966;SDS011;51710;38.732;-121.358;2022-09-09T10:03:30;4.35;;;2.20;;
64966;SDS011;51710;38.732;-121.358;2022-09-09T10:06:03;5.30;;;2.70;;
64966;SDS011;51710;38.732;-121.358;2022-09-09T10:08:33;4.90;;;2.50;;
64966;SDS011;51710;38.732;-121.358;2022-09-09T10:13:44;6.30;;;3.03;;
64966;SDS011;51710;38.732;-121.358;2022-09-09T10:19:08;4.60;;;2.53;;
64966;SDS011;51710;38.732;-121.358;2022-09-09T10:30:12;7.32;;;2.60;;
64966;SDS011;51710;38.732;-121.358;2022-09-09T10:40:33;5.57;;;2.60;;
64966;SDS011;51710;38.732;-121.358;2022-09-09T10:43:23;3.83;;;2.40;;
64966;SDS011;51710;38.732;-121.358;2022-09-09T10:46:20;7.30;;;2.85;;
64966;SDS011;51710;38.732;-121.358;2022-09-09T10:57:42;7.38;;;2.88;;
64966;SDS011;51710;38.732;-121.358;2022-09-09T11:02:47;8.18;;;2.80;;
64966;SDS011;51710;38.732;-121.358;2022-09-09T11:08:11;5.05;;;2.80;;
64966;SDS011;51710;38.732;-121.358;2022-09-09T11:10:51;5.47;;;2.75;;
64966;SDS011;51710;38.732;-121.358;2022-09-09T11:16:05;10.45;;;2.70;;
64966;SDS011;51710;38.732;-121.358;2022-09-09T11:18:50;5.53;;;2.60;;
64966;SDS011;51710;38.732;-121.358;2022-09-09T11:21:29;7.38;;;2.60;;
64966;SDS011;51710;38.732;-121.358;2022-09-09T11:24:10;5.10;;;2.50;;
64966;SDS011;51710;38.732;-121.358;2022-09-09T11:26:50;4.93;;;2.75;;
64966;SDS011;51710;38.732;-121.358;2022-09-09T11:40:25;5.68;;;2.90;;
64966;SDS011;51710;38.732;-121.358;2022-09-09T11:45:54;5.05;;;2.67;;
64966;SDS011;51710;38.732;-121.358;2022-09-09T11:51:25;6.15;;;2.45;;
64966;SDS011;51710;38.732;-121.358;2022-09-09T11:54:00;4.45;;;2.45;;
64966;SDS011;51710;38.732;-121.358;2022-09-09T11:56:47;5.22;;;2.97;;
64966;SDS011;51710;38.732;-121.358;2022-09-09T11:59:55;6.95;;;3.22;;
64966;SDS011;51710;38.732;-121.358;2022-09-09T12:02:09;5.95;;;2.33;;
64966;SDS011;51710;38.732;-121.358;2022-09-09T12:04:47;3.90;;;2.22;;
64966;SDS011;51710;38.732;-121.358;2022-09-09T12:07:26;7.93;;;2.72;;
64966;SDS011;51710;38.732;-121.358;2022-09-09T12:10:23;6.70;;;2.75;;
64966;SDS011;51710;38.732;-121.358;2022-09-09T12:12:54;4.50;;;2.40;;
64966;SDS011;51710;38.732;-121.358;2022-09-09T12:15:26;7.55;;;2.63;;
64966;SDS011;51710;38.732;-121.358;2022-09-09T12:17:57;4.82;;;2.40;;
64966;SDS011;51710;38.732;-121.358;2022-09-09T12:20:31;4.38;;;2.35;;
64966;SDS011;51710;38.732;-121.358;2022-09-09T12:23:13;5.65;;;2.33;;
64966;SDS011;51710;38.732;-121.358;2022-09-09T12:28:39;8.43;;;3.20;;
64966;SDS011;51710;38.732;-121.358;2022-09-09T12:31:27;6.10;;;2.58;;
64966;SDS011;51710;38.732;-121.358;2022-09-09T12:34:23;8.75;;;2.95;;
64966;SDS011;51710;38.732;-121.358;2022-09-09T12:36:59;5.03;;;2.38;;
64966;SDS011;51710;38.732;-121.358;2022-09-09T12:39:52;8.60;;;2.90;;
64966;SDS011;51710;38.732;-121.358;2022-09-09T12:42:21;6.50;;;2.80;;
64966;SDS011;51710;38.732;-121.358;2022-09-09T12:47:35;16.08;;;4.05;;
64966;SDS011;51710;38.732;-121.358;2022-09-09T12:52:59;9.57;;;2.92;;
64966;SDS011;51710;38.732;-121.358;2022-09-09T12:55:32;4.85;;;2.85;;
64966;SDS011;51710;38.732;-121.358;2022-09-09T12:58:05;6.65;;;3.67;;
64966;SDS011;51710;38.732;-121.358;2022-09-09T13:00:33;7.68;;;3.38;;
64966;SDS011;51710;38.732;-121.358;2022-09-09T13:03:01;6.05;;;3.25;;
64966;SDS011;51710;38.732;-121.358;2022-09-09T13:05:39;9.50;;;3.30;;
64966;SDS011;51710;38.732;-121.358;2022-09-09T13:08:06;5.20;;;2.70;;
64966;SDS011;51710;38.732;-121.358;2022-09-09T13:10:37;6.28;;;3.13;;
64966;SDS011;51710;38.732;-121.358;2022-09-09T13:13:10;5.85;;;3.28;;
64966;SDS011;51710;38.732;-121.358;2022-09-09T13:15:47;7.20;;;3.25;;
64966;SDS011;51710;38.732;-121.358;2022-09-09T13:18:16;6.00;;;2.80;;
64966;SDS011;51710;38.732;-121.358;2022-09-09T13:20:47;5.47;;;2.55;;
64966;SDS011;51710;38.732;-121.358;2022-09-09T13:23:15;4.72;;;3.08;;
64966;SDS011;51710;38.732;-121.358;2022-09-09T13:25:52;5.68;;;3.10;;
64966;SDS011;51710;38.732;-121.358;2022-09-09T13:28:22;5.97;;;2.90;;
64966;SDS011;51710;38.732;-121.358;2022-09-09T13:30:56;6.57;;;3.10;;
64966;SDS011;51710;38.732;-121.358;2022-09-09T13:33:45;4.78;;;3.20;;
64966;SDS011;51710;38.732;-121.358;2022-09-09T13:36:11;6.70;;;3.35;;
64966;SDS011;51710;38.732;-121.358;2022-09-09T13:41:25;6.45;;;3.53;;
64966;SDS011;51710;38.732;-121.358;2022-09-09T13:43:55;5.88;;;3.40;;
64966;SDS011;51710;38.732;-121.358;2022-09-09T13:49:01;6.85;;;4.05;;
64966;SDS011;51710;38.732;-121.358;2022-09-09T13:51:49;6.50;;;4.55;;
64966;SDS011;51710;38.732;-121.358;2022-09-09T13:54:18;8.15;;;4.80;;
64966;SDS011;51710;38.732;-121.358;2022-09-09T13:56:46;7.72;;;4.55;;
64966;SDS011;51710;38.732;-121.358;2022-09-09T13:59:16;14.13;;;5.40;;
64966;SDS011;51710;38.732;-121.358;2022-09-09T14:01:46;7.68;;;5.10;;
64966;SDS011;51710;38.732;-121.358;2022-09-09T14:04:14;9.40;;;5.72;;
64966;SDS011;51710;38.732;-121.358;2022-09-09T14:06:41;7.85;;;5.80;;
64966;SDS011;51710;38.732;-121.358;2022-09-09T14:09:12;10.48;;;5.53;;
64966;SDS011;51710;38.732;-121.358;2022-09-09T14:11:40;9.57;;;5.10;;
64966;SDS011;51710;38.732;-121.358;2022-09-09T14:14:07;8.40;;;5.40;;
64966;SDS011;51710;38.732;-121.358;2022-09-09T14:16:34;8.68;;;5.10;;
64966;SDS011;51710;38.732;-121.358;2022-09-09T14:19:00;8.55;;;5.18;;
64966;SDS011;51710;38.732;-121.358;2022-09-09T14:21:27;8.75;;;4.78;;
64966;SDS011;51710;38.732;-121.358;2022-09-09T14:23:53;8.27;;;5.60;;
64966;SDS011;51710;38.732;-121.358;2022-09-09T14:26:23;10.32;;;5.93;;
64966;SDS011;51710;38.732;-121.358;2022-09-09T14:28:50;11.10;;;4.82;;
64966;SDS011;51710;38.732;-121.358;2022-09-09T14:31:17;10.45;;;5.10;;
64966;SDS011;51710;38.732;-121.358;2022-09-09T14:33:44;8.00;;;5.38;;
64966;SDS011;51710;38.732;-121.358;2022-09-09T14:36:10;10.77;;;4.93;;
64966;SDS011;51710;38.732;-121.358;2022-09-09T14:38:37;7.85;;;5.18;;
64966;SDS011;51710;38.732;-121.358;2022-09-09T14:41:15;10.45;;;5.00;;
64966;SDS011;51710;38.732;-121.358;2022-09-09T14:43:43;8.85;;;4.95;;
64966;SDS011;51710;38.732;-121.358;2022-09-09T14:46:11;7.18;;;4.93;;
64966;SDS011;51710;38.732;-121.358;2022-09-09T14:48:39;13.90;;;5.60;;
64966;SDS011;51710;38.732;-121.358;2022-09-09T14:51:13;9.70;;;5.13;;
64966;SDS011;51710;38.732;-121.358;2022-09-09T14:53:42;10.73;;;5.15;;
64966;SDS011;51710;38.732;-121.358;2022-09-09T15:01:14;7.97;;;5.40;;
64966;SDS011;51710;38.732;-121.358;2022-09-09T15:03:43;7.95;;;4.65;;
64966;SDS011;51710;38.732;-121.358;2022-09-09T15:06:19;9.13;;;4.93;;
64966;SDS011;51710;38.732;-121.358;2022-09-09T15:08:47;9.77;;;5.45;;
64966;SDS011;51710;38.732;-121.358;2022-09-09T15:11:15;6.70;;;4.97;;
64966;SDS011;51710;38.732;-121.358;2022-09-09T15:13:42;14.00;;;6.18;;
64966;SDS011;51710;38.732;-121.358;2022-09-09T15:16:11;8.52;;;5.22;;
64966;SDS011;51710;38.732;-121.358;2022-09-09T15:18:39;13.18;;;4.47;;
64966;SDS011;51710;38.732;-121.358;2022-09-09T15:21:10;11.50;;;4.13;;
64966;SDS011;51710;38.732;-121.358;2022-09-09T15:23:47;11.90;;;3.97;;
64966;SDS011;51710;38.732;-121.358;2022-09-09T15:26:14;19.15;;;4.40;;
64966;SDS011;51710;38.732;-121.358;2022-09-09T15:28:40;10.50;;;4.28;;
64966;SDS011;51710;38.732;-121.358;2022-09-09T15:31:27;11.65;;;3.78;;
64966;SDS011;51710;38.732;-121.358;2022-09-09T15:33:59;7.43;;;2.83;;
64966;SDS011;51710;38.732;-121.358;2022-09-09T15:36:31;6.15;;;2.65;;
64966;SDS011;51710;38.732;-121.358;2022-09-09T15:38:58;10.48;;;3.17;;
64966;SDS011;51710;38.732;-121.358;2022-09-09T15:41:26;8.80;;;3.40;;
64966;SDS011;51710;38.732;-121.358;2022-09-09T15:43:54;11.57;;;3.35;;
64966;SDS011;51710;38.732;-121.358;2022-09-09T15:46:26;8.10;;;3.50;;
64966;SDS011;51710;38.732;-121.358;2022-09-09T15:48:55;9.00;;;2.90;;
64966;SDS011;51710;38.732;-121.358;2022-09-09T15:51:23;4.85;;;2.63;;
64966;SDS011;51710;38.732;-121.358;2022-09-09T15:53:53;8.00;;;2.60;;
64966;SDS011;51710;38.732;-121.358;2022-09-09T15:56:21;9.23;;;2.97;;
64966;SDS011;51710;38.732;-121.358;2022-09-09T15:58:48;5.53;;;2.75;;
64966;SDS011;51710;38.732;-121.358;2022-09-09T16:01:15;10.45;;;2.28;;
64966;SDS011;51710;38.732;-121.358;2022-09-09T16:03:45;6.93;;;2.50;;
64966;SDS011;51710;38.732;-121.358;2022-09-09T16:06:12;13.93;;;3.03;;
64966;SDS011;51710;38.732;-121.358;2022-09-09T16:08:40;3.60;;;2.30;;
64966;SDS011;51710;38.732;-121.358;2022-09-09T16:11:11;5.25;;;2.53;;
64966;SDS011;51710;38.732;-121.358;2022-09-09T16:13:43;6.43;;;3.10;;
64966;SDS011;51710;38.732;-121.358;2022-09-09T16:16:13;7.45;;;2.78;;
64966;SDS011;51710;38.732;-121.358;2022-09-09T16:18:45;6.40;;;3.30;;
64966;SDS011;51710;38.732;-121.358;2022-09-09T16:21:17;8.38;;;3.60;;
64966;SDS011;51710;38.732;-121.358;2022-09-09T16:23:44;8.75;;;3.85;;
64966;SDS011;51710;38.732;-121.358;2022-09-09T16:26:12;5.82;;;3.78;;
64966;SDS011;51710;38.732;-121.358;2022-09-09T16:28:40;7.50;;;3.85;;
64966;SDS011;51710;38.732;-121.358;2022-09-09T16:31:07;8.32;;;3.53;;
64966;SDS011;51710;38.732;-121.358;2022-09-09T16:33:35;6.22;;;3.20;;
64966;SDS011;51710;38.732;-121.358;2022-09-09T16:36:06;6.07;;;3.83;;
64966;SDS011;51710;38.732;-121.358;2022-09-09T16:38:33;15.50;;;4.28;;
64966;SDS011;51710;38.732;-121.358;2022-09-09T16:41:01;5.97;;;3.20;;
64966;SDS011;51710;38.732;-121.358;2022-09-09T16:43:30;6.65;;;3.20;;
64966;SDS011;51710;38.732;-121.358;2022-09-09T16:45:57;6.78;;;3.25;;
64966;SDS011;51710;38.732;-121.358;2022-09-09T16:48:26;6.93;;;3.10;;
64966;SDS011;51710;38.732;-121.358;2022-09-09T16:51:06;8.02;;;2.90;;
64966;SDS011;51710;38.732;-121.358;2022-09-09T16:53:35;7.07;;;2.97;;
64966;SDS011;51710;38.732;-121.358;2022-09-09T16:56:08;6.85;;;2.97;;
64966;SDS011;51710;38.732;-121.358;2022-09-09T16:58:37;6.75;;;3.65;;
64966;SDS011;51710;38.732;-121.358;2022-09-09T17:01:03;6.57;;;3.40;;
64966;SDS011;51710;38.732;-121.358;2022-09-09T17:03:30;7.28;;;3.58;;
64966;SDS011;51710;38.732;-121.358;2022-09-09T17:05:58;10.63;;;3.72;;
64966;SDS011;51710;38.732;-121.358;2022-09-09T17:08:30;9.57;;;3.33;;
64966;SDS011;51710;38.732;-121.358;2022-09-09T17:10:57;6.82;;;2.95;;
64966;SDS011;51710;38.732;-121.358;2022-09-09T17:13:24;7.65;;;3.22;;